sensor_id;sensor_type;location;lat;lon;timestamp;P1;durP1;ratioP1;P2;durP2;ratioP2
1154;SDS011;566;48.414;9.118;2023-03-17T00:01:06;6.60;;;4.05;;
1154;SDS011;566;48.414;9.118;2023-03-17T00:03:35;6.38;;;3.72;;
1154;SDS011;566;48.414;9.118;2023-03-17T00:06:03;6.55;;;3.95;;
1154;SDS011;566;48.414;9.118;2023-03-17T00:08:33;7.00;;;4.13;;
1154;SDS011;566;48.414;9.118;2023-03-17T00:11:02;7.78;;;4.47;;
1154;SDS011;566;48.414;9.118;2023-03-17T00:13:28;7.40;;;4.00;;
1154;SDS011;566;48.414;9.118;2023-03-17T00:15:55;8.23;;;4.22;;
1154;SDS011;566;48.414;9.118;2023-03-17T00:18:25;7.30;;;4.03;;
1154;SDS011;566;48.414;9.118;2023-03-17T00:20:51;8.93;;;4.43;;
1154;SDS011;566;48.414;9.118;2023-03-17T00:23:17;5.68;;;3.67;;
1154;SDS011;566;48.414;9.118;2023-03-17T00:25:47;7.88;;;4.35;;
1154;SDS011;566;48.414;9.118;2023-03-17T00:28:15;6.85;;;3.72;;
1154;SDS011;566;48.414;9.118;2023-03-17T00:30:42;7.28;;;4.22;;
1154;SDS011;566;48.414;9.118;2023-03-17T00:33:09;6.25;;;3.88;;
1154;SDS011;566;48.414;9.118;2023-03-17T00:35:35;6.78;;;3.72;;
1154;SDS011;566;48.414;9.118;2023-03-17T00:38:02;8.05;;;4.70;;
1154;SDS011;566;48.414;9.118;2023-03-17T00:40:28;7.53;;;4.22;;
1154;SDS011;566;48.414;9.118;2023-03-17T00:42:55;7.85;;;4.18;;
1154;SDS011;566;48.414;9.118;2023-03-17T00:45:22;9.20;;;4.63;;
1154;SDS011;566;48.414;9.118;2023-03-17T00:47:50;6.65;;;3.92;;
1154;SDS011;566;48.414;9.118;2023-03-17T00:50:18;7.38;;;3.75;;
1154;SDS011;566;48.414;9.118;2023-03-17T00:52:48;6.35;;;3.75;;
1154;SDS011;566;48.414;9.118;2023-03-17T00:55:17;6.35;;;3.50;;
1154;SDS011;566;48.414;9.118;2023-03-17T00:57:45;5.53;;;3.08;;
1154;SDS011;566;48.414;9.118;2023-03-17T01:00:16;8.57;;;5.25;;
1154;SDS011;566;48.414;9.118;2023-03-17T01:03:00;7.53;;;4.63;;
1154;SDS011;566;48.414;9.118;2023-03-17T01:05:26;7.82;;;4.80;;
1154;SDS011;566;48.414;9.118;2023-03-17T01:07:53;9.98;;;5.15;;
1154;SDS011;566;48.414;9.118;2023-03-17T01:10:22;8.23;;;5.25;;
1154;SDS011;566;48.414;9.118;2023-03-17T01:12:50;11.02;;;4.82;;
1154;SDS011;566;48.414;9.118;2023-03-17T01:15:17;9.05;;;4.50;;
1154;SDS011;566;48.414;9.118;2023-03-17T01:17:45;9.40;;;4.63;;
1154;SDS011;566;48.414;9.118;2023-03-17T01:20:14;10.15;;;4.45;;
1154;SDS011;566;48.414;9.118;2023-03-17T01:22:43;6.63;;;3.72;;
1154;SDS011;566;48.414;9.118;2023-03-17T01:25:09;7.55;;;3.95;;
1154;SDS011;566;48.414;9.118;2023-03-17T01:27:36;6.95;;;3.45;;
1154;SDS011;566;48.414;9.118;2023-03-17T01:30:03;8.32;;;3.33;;
1154;SDS011;566;48.414;9.118;2023-03-17T01:32:30;6.55;;;3.35;;
1154;SDS011;566;48.414;9.118;2023-03-17T01:34:55;5.68;;;3.17;;
1154;SDS011;566;48.414;9.118;2023-03-17T01:37:22;6.10;;;3.10;;
1154;SDS011;566;48.414;9.118;2023-03-17T01:39:47;6.05;;;3.00;;
1154;SDS011;566;48.414;9.118;2023-03-17T01:42:13;7.63;;;3.72;;
1154;SDS011;566;48.414;9.118;2023-03-17T01:47:26;6.90;;;2.92;;
1154;SDS011;566;48.414;9.118;2023-03-17T01:49:54;4.70;;;2.78;;
1154;SDS011;566;48.414;9.118;2023-03-17T01:52:21;6.38;;;3.20;;
1154;SDS011;566;48.414;9.118;2023-03-17T01:57:33;4.82;;;2.40;;
1154;SDS011;566;48.414;9.118;2023-03-17T02:00:10;4.93;;;2.30;;
1154;SDS011;566;48.414;9.118;2023-03-17T02:02:39;4.75;;;2.55;;
1154;SDS011;566;48.414;9.118;2023-03-17T02:05:07;5.45;;;2.85;;
1154;SDS011;566;48.414;9.118;2023-03-17T02:07:36;5.32;;;2.80;;
1154;SDS011;566;48.414;9.118;2023-03-17T02:10:02;6.38;;;2.75;;
1154;SDS011;566;48.414;9.118;2023-03-17T02:12:30;5.45;;;2.95;;
1154;SDS011;566;48.414;9.118;2023-03-17T02:14:55;5.32;;;3.20;;
1154;SDS011;566;48.414;9.118;2023-03-17T02:17:22;7.00;;;3.33;;
1154;SDS011;566;48.414;9.118;2023-03-17T02:19:49;9.38;;;2.90;;
1154;SDS011;566;48.414;9.118;2023-03-17T02:22:16;5.05;;;3.00;;
1154;SDS011;566;48.414;9.118;2023-03-17T02:24:43;6.35;;;2.90;;
1154;SDS011;566;48.414;9.118;2023-03-17T02:29:57;4.97;;;2.63;;
1154;SDS011;566;48.414;9.118;2023-03-17T02:32:23;7.35;;;2.97;;
1154;SDS011;566;48.414;9.118;2023-03-17T02:34:49;6.35;;;3.00;;
1154;SDS011;566;48.414;9.118;2023-03-17T02:37:16;7.10;;;3.20;;
1154;SDS011;566;48.414;9.118;2023-03-17T02:39:43;8.13;;;2.97;;
1154;SDS011;566;48.414;9.118;2023-03-17T02:42:09;6.18;;;3.33;;
1154;SDS011;566;48.414;9.118;2023-03-17T02:44:35;6.57;;;3.35;;
1154;SDS011;566;48.414;9.118;2023-03-17T02:47:00;6.60;;;3.70;;
1154;SDS011;566;48.414;9.118;2023-03-17T02:49:27;5.45;;;3.30;;
1154;SDS011;566;48.414;9.118;2023-03-17T02:51:54;7.18;;;3.75;;
1154;SDS011;566;48.414;9.118;2023-03-17T02:54:20;6.07;;;3.88;;
1154;SDS011;566;48.414;9.118;2023-03-17T02:56:45;6.47;;;4.05;;
1154;SDS011;566;48.414;9.118;2023-03-17T02:59:11;8.77;;;3.42;;
1154;SDS011;566;48.414;9.118;2023-03-17T03:01:37;6.65;;;3.88;;
1154;SDS011;566;48.414;9.118;2023-03-17T03:04:06;6.15;;;3.50;;
1154;SDS011;566;48.414;9.118;2023-03-17T03:06:32;5.53;;;3.53;;
1154;SDS011;566;48.414;9.118;2023-03-17T03:08:57;7.45;;;3.90;;
1154;SDS011;566;48.414;9.118;2023-03-17T03:11:23;6.90;;;3.63;;
1154;SDS011;566;48.414;9.118;2023-03-17T03:13:49;6.82;;;4.47;;
1154;SDS011;566;48.414;9.118;2023-03-17T03:16:15;6.47;;;3.63;;
1154;SDS011;566;48.414;9.118;2023-03-17T03:18:40;6.00;;;3.35;;
1154;SDS011;566;48.414;9.118;2023-03-17T03:21:06;8.95;;;3.55;;
1154;SDS011;566;48.414;9.118;2023-03-17T03:23:32;7.95;;;4.20;;
1154;SDS011;566;48.414;9.118;2023-03-17T03:25:58;6.10;;;3.50;;
1154;SDS011;566;48.414;9.118;2023-03-17T03:28:23;8.20;;;4.03;;
1154;SDS011;566;48.414;9.118;2023-03-17T03:30:49;9.55;;;4.60;;
1154;SDS011;566;48.414;9.118;2023-03-17T03:33:18;8.43;;;3.83;;
1154;SDS011;566;48.414;9.118;2023-03-17T03:35:44;6.65;;;3.95;;
1154;SDS011;566;48.414;9.118;2023-03-17T03:38:12;7.07;;;4.18;;
1154;SDS011;566;48.414;9.118;2023-03-17T03:40:38;6.97;;;3.65;;
1154;SDS011;566;48.414;9.118;2023-03-17T03:43:06;8.57;;;4.65;;
1154;SDS011;566;48.414;9.118;2023-03-17T03:45:32;6.03;;;4.03;;
1154;SDS011;566;48.414;9.118;2023-03-17T03:47:58;9.48;;;4.43;;
1154;SDS011;566;48.414;9.118;2023-03-17T03:50:24;7.40;;;4.32;;
1154;SDS011;566;48.414;9.118;2023-03-17T03:52:49;8.52;;;4.80;;
1154;SDS011;566;48.414;9.118;2023-03-17T03:55:15;7.10;;;4.00;;
1154;SDS011;566;48.414;9.118;2023-03-17T03:57:44;7.10;;;3.78;;
1154;SDS011;566;48.414;9.118;2023-03-17T04:00:10;7.55;;;3.95;;
1154;SDS011;566;48.414;9.118;2023-03-17T04:02:38;6.47;;;4.13;;
1154;SDS011;566;48.414;9.118;2023-03-17T04:05:05;7.03;;;4.60;;
1154;SDS011;566;48.414;9.118;2023-03-17T04:07:31;6.38;;;4.03;;
1154;SDS011;566;48.414;9.118;2023-03-17T04:09:57;8.45;;;3.75;;
1154;SDS011;566;48.414;9.118;2023-03-17T04:12:23;5.88;;;3.22;;
1154;SDS011;566;48.414;9.118;2023-03-17T04:14:50;5.63;;;3.20;;
1154;SDS011;566;48.414;9.118;2023-03-17T04:17:15;5.68;;;3.15;;
1154;SDS011;566;48.414;9.118;2023-03-17T04:19:41;6.57;;;3.17;;
1154;SDS011;566;48.414;9.118;2023-03-17T04:22:07;8.20;;;3.45;;
1154;SDS011;566;48.414;9.118;2023-03-17T04:24:34;6.25;;;3.28;;
1154;SDS011;566;48.414;9.118;2023-03-17T04:27:00;5.63;;;2.97;;
1154;SDS011;566;48.414;9.118;2023-03-17T04:29:26;6.45;;;3.28;;
1154;SDS011;566;48.414;9.118;2023-03-17T04:31:52;6.30;;;3.10;;
1154;SDS011;566;48.414;9.118;2023-03-17T04:34:17;6.65;;;3.28;;
1154;SDS011;566;48.414;9.118;2023-03-17T04:36:44;5.85;;;3.50;;
1154;SDS011;566;48.414;9.118;2023-03-17T04:39:10;6.10;;;3.42;;
1154;SDS011;566;48.414;9.118;2023-03-17T04:41:36;5.65;;;3.10;;
1154;SDS011;566;48.414;9.118;2023-03-17T04:44:02;5.57;;;3.10;;
1154;SDS011;566;48.414;9.118;2023-03-17T04:46:28;6.00;;;3.10;;
1154;SDS011;566;48.414;9.118;2023-03-17T04:48:54;7.45;;;3.80;;
1154;SDS011;566;48.414;9.118;2023-03-17T04:51:20;6.18;;;3.33;;
1154;SDS011;566;48.414;9.118;2023-03-17T04:53:46;6.82;;;3.60;;
1154;SDS011;566;48.414;9.118;2023-03-17T04:56:11;6.00;;;3.47;;
1154;SDS011;566;48.414;9.118;2023-03-17T04:58:37;6.82;;;3.83;;
1154;SDS011;566;48.414;9.118;2023-03-17T05:01:03;8.27;;;3.78;;
1154;SDS011;566;48.414;9.118;2023-03-17T05:03:30;8.27;;;3.75;;
1154;SDS011;566;48.414;9.118;2023-03-17T05:05:59;6.78;;;3.80;;
1154;SDS011;566;48.414;9.118;2023-03-17T05:08:25;5.38;;;3.08;;
1154;SDS011;566;48.414;9.118;2023-03-17T05:10:52;5.75;;;3.35;;
1154;SDS011;566;48.414;9.118;2023-03-17T05:13:22;7.32;;;3.70;;
1154;SDS011;566;48.414;9.118;2023-03-17T05:15:49;7.53;;;3.58;;
1154;SDS011;566;48.414;9.118;2023-03-17T05:18:15;8.38;;;3.60;;
1154;SDS011;566;48.414;9.118;2023-03-17T05:20:42;6.80;;;3.47;;
1154;SDS011;566;48.414;9.118;2023-03-17T05:23:08;6.40;;;3.78;;
1154;SDS011;566;48.414;9.118;2023-03-17T05:25:33;8.60;;;3.92;;
1154;SDS011;566;48.414;9.118;2023-03-17T05:27:59;6.90;;;3.60;;
1154;SDS011;566;48.414;9.118;2023-03-17T05:30:25;5.45;;;3.05;;
1154;SDS011;566;48.414;9.118;2023-03-17T05:32:51;6.45;;;3.55;;
1154;SDS011;566;48.414;9.118;2023-03-17T05:35:17;5.82;;;2.88;;
1154;SDS011;566;48.414;9.118;2023-03-17T05:37:42;5.47;;;3.10;;
1154;SDS011;566;48.414;9.118;2023-03-17T05:40:09;5.25;;;2.80;;
1154;SDS011;566;48.414;9.118;2023-03-17T05:42:36;5.13;;;3.33;;
1154;SDS011;566;48.414;9.118;2023-03-17T05:45:02;6.65;;;3.90;;
1154;SDS011;566;48.414;9.118;2023-03-17T05:47:29;5.78;;;3.72;;
1154;SDS011;566;48.414;9.118;2023-03-17T05:49:56;8.30;;;3.80;;
1154;SDS011;566;48.414;9.118;2023-03-17T05:52:22;7.68;;;4.53;;
1154;SDS011;566;48.414;9.118;2023-03-17T05:54:48;10.70;;;4.40;;
1154;SDS011;566;48.414;9.118;2023-03-17T05:57:13;9.00;;;4.18;;
1154;SDS011;566;48.414;9.118;2023-03-17T05:59:40;7.00;;;4.00;;
1154;SDS011;566;48.414;9.118;2023-03-17T06:02:06;8.15;;;4.50;;
1154;SDS011;566;48.414;9.118;2023-03-17T06:04:32;8.90;;;4.45;;
1154;SDS011;566;48.414;9.118;2023-03-17T06:06:59;6.95;;;4.00;;
1154;SDS011;566;48.414;9.118;2023-03-17T06:09:25;6.40;;;4.32;;
1154;SDS011;566;48.414;9.118;2023-03-17T06:11:52;9.43;;;4.75;;
1154;SDS011;566;48.414;9.118;2023-03-17T06:14:17;8.75;;;5.03;;
1154;SDS011;566;48.414;9.118;2023-03-17T06:16:43;13.32;;;5.72;;
1154;SDS011;566;48.414;9.118;2023-03-17T06:19:09;9.65;;;5.38;;
1154;SDS011;566;48.414;9.118;2023-03-17T06:21:35;8.18;;;4.80;;
1154;SDS011;566;48.414;9.118;2023-03-17T06:24:00;8.60;;;4.78;;
1154;SDS011;566;48.414;9.118;2023-03-17T06:26:26;10.43;;;5.45;;
1154;SDS011;566;48.414;9.118;2023-03-17T06:28:52;10.68;;;6.10;;
1154;SDS011;566;48.414;9.118;2023-03-17T06:31:17;9.35;;;5.57;;
1154;SDS011;566;48.414;9.118;2023-03-17T06:33:43;7.70;;;4.68;;
1154;SDS011;566;48.414;9.118;2023-03-17T06:36:08;8.45;;;4.68;;
1154;SDS011;566;48.414;9.118;2023-03-17T06:38:34;10.35;;;4.90;;
1154;SDS011;566;48.414;9.118;2023-03-17T06:41:00;7.57;;;4.68;;
1154;SDS011;566;48.414;9.118;2023-03-17T06:43:26;9.32;;;4.60;;
1154;SDS011;566;48.414;9.118;2023-03-17T06:45:51;17.67;;;8.02;;
1154;SDS011;566;48.414;9.118;2023-03-17T06:48:17;12.55;;;6.57;;
1154;SDS011;566;48.414;9.118;2023-03-17T06:50:43;18.92;;;7.82;;
1154;SDS011;566;48.414;9.118;2023-03-17T06:53:11;14.20;;;6.45;;
1154;SDS011;566;48.414;9.118;2023-03-17T06:55:37;16.13;;;8.27;;
1154;SDS011;566;48.414;9.118;2023-03-17T06:58:03;14.10;;;6.97;;
1154;SDS011;566;48.414;9.118;2023-03-17T07:00:29;17.00;;;8.95;;
1154;SDS011;566;48.414;9.118;2023-03-17T07:02:55;13.70;;;7.20;;
1154;SDS011;566;48.414;9.118;2023-03-17T07:05:24;15.70;;;6.82;;
1154;SDS011;566;48.414;9.118;2023-03-17T07:07:50;9.05;;;5.10;;
1154;SDS011;566;48.414;9.118;2023-03-17T07:10:17;10.00;;;4.63;;
1154;SDS011;566;48.414;9.118;2023-03-17T07:12:43;5.70;;;3.10;;
1154;SDS011;566;48.414;9.118;2023-03-17T07:15:09;5.63;;;2.97;;
1154;SDS011;566;48.414;9.118;2023-03-17T07:17:36;6.10;;;3.33;;
1154;SDS011;566;48.414;9.118;2023-03-17T07:20:02;8.80;;;4.10;;
1154;SDS011;566;48.414;9.118;2023-03-17T07:22:30;17.33;;;8.23;;
1154;SDS011;566;48.414;9.118;2023-03-17T07:24:56;14.57;;;7.43;;
1154;SDS011;566;48.414;9.118;2023-03-17T07:27:22;18.92;;;8.48;;
1154;SDS011;566;48.414;9.118;2023-03-17T07:29:50;15.10;;;6.85;;
1154;SDS011;566;48.414;9.118;2023-03-17T07:32:16;20.17;;;9.18;;
1154;SDS011;566;48.414;9.118;2023-03-17T07:34:45;16.95;;;8.77;;
1154;SDS011;566;48.414;9.118;2023-03-17T07:37:10;14.98;;;8.13;;
1154;SDS011;566;48.414;9.118;2023-03-17T07:39:36;14.38;;;7.50;;
1154;SDS011;566;48.414;9.118;2023-03-17T07:42:03;15.77;;;8.00;;
1154;SDS011;566;48.414;9.118;2023-03-17T07:44:28;35.15;;;17.23;;
1154;SDS011;566;48.414;9.118;2023-03-17T07:46:55;22.92;;;10.55;;
1154;SDS011;566;48.414;9.118;2023-03-17T07:49:20;18.13;;;8.15;;
1154;SDS011;566;48.414;9.118;2023-03-17T07:51:46;15.65;;;8.10;;
1154;SDS011;566;48.414;9.118;2023-03-17T07:54:12;13.57;;;8.07;;
1154;SDS011;566;48.414;9.118;2023-03-17T07:56:38;11.45;;;6.13;;
1154;SDS011;566;48.414;9.118;2023-03-17T07:59:04;11.18;;;5.85;;
1154;SDS011;566;48.414;9.118;2023-03-17T08:01:32;13.48;;;5.50;;
1154;SDS011;566;48.414;9.118;2023-03-17T08:03:58;16.05;;;5.65;;
1154;SDS011;566;48.414;9.118;2023-03-17T08:06:24;8.32;;;4.35;;
1154;SDS011;566;48.414;9.118;2023-03-17T08:08:51;9.07;;;4.70;;
1154;SDS011;566;48.414;9.118;2023-03-17T08:11:17;7.82;;;4.45;;
1154;SDS011;566;48.414;9.118;2023-03-17T08:13:44;7.43;;;3.50;;
1154;SDS011;566;48.414;9.118;2023-03-17T08:16:10;7.90;;;3.53;;
1154;SDS011;566;48.414;9.118;2023-03-17T08:18:36;7.45;;;4.40;;
1154;SDS011;566;48.414;9.118;2023-03-17T08:21:02;7.50;;;4.40;;
1154;SDS011;566;48.414;9.118;2023-03-17T08:23:29;10.05;;;4.22;;
1154;SDS011;566;48.414;9.118;2023-03-17T08:25:55;10.50;;;4.55;;
1154;SDS011;566;48.414;9.118;2023-03-17T08:28:22;8.15;;;4.07;;
1154;SDS011;566;48.414;9.118;2023-03-17T08:30:47;9.68;;;5.05;;
1154;SDS011;566;48.414;9.118;2023-03-17T08:33:14;9.93;;;5.18;;
1154;SDS011;566;48.414;9.118;2023-03-17T08:35:40;8.30;;;4.10;;
1154;SDS011;566;48.414;9.118;2023-03-17T08:38:06;9.43;;;5.18;;
1154;SDS011;566;48.414;9.118;2023-03-17T08:40:32;8.38;;;5.32;;
1154;SDS011;566;48.414;9.118;2023-03-17T08:42:58;7.82;;;4.53;;
1154;SDS011;566;48.414;9.118;2023-03-17T08:45:24;7.40;;;4.15;;
1154;SDS011;566;48.414;9.118;2023-03-17T08:47:53;8.68;;;3.67;;
1154;SDS011;566;48.414;9.118;2023-03-17T08:50:20;7.22;;;3.90;;
1154;SDS011;566;48.414;9.118;2023-03-17T08:52:47;7.63;;;4.53;;
1154;SDS011;566;48.414;9.118;2023-03-17T08:55:14;8.77;;;3.90;;
1154;SDS011;566;48.414;9.118;2023-03-17T08:57:40;7.63;;;3.53;;
1154;SDS011;566;48.414;9.118;2023-03-17T09:00:07;8.00;;;3.92;;
1154;SDS011;566;48.414;9.118;2023-03-17T09:02:38;6.50;;;3.30;;
1154;SDS011;566;48.414;9.118;2023-03-17T09:05:07;8.65;;;2.97;;
1154;SDS011;566;48.414;9.118;2023-03-17T09:07:34;6.18;;;3.10;;
1154;SDS011;566;48.414;9.118;2023-03-17T09:10:00;6.78;;;2.97;;
1154;SDS011;566;48.414;9.118;2023-03-17T09:12:29;5.68;;;3.00;;
1154;SDS011;566;48.414;9.118;2023-03-17T09:14:55;8.00;;;3.70;;
1154;SDS011;566;48.414;9.118;2023-03-17T09:17:21;6.82;;;2.85;;
1154;SDS011;566;48.414;9.118;2023-03-17T09:19:47;7.78;;;2.90;;
1154;SDS011;566;48.414;9.118;2023-03-17T09:22:14;5.85;;;3.03;;
1154;SDS011;566;48.414;9.118;2023-03-17T09:24:42;6.47;;;2.60;;
1154;SDS011;566;48.414;9.118;2023-03-17T09:27:11;7.90;;;2.53;;
1154;SDS011;566;48.414;9.118;2023-03-17T09:29:37;8.15;;;2.50;;
1154;SDS011;566;48.414;9.118;2023-03-17T09:32:02;6.43;;;3.30;;
1154;SDS011;566;48.414;9.118;2023-03-17T09:34:28;6.07;;;2.63;;
1154;SDS011;566;48.414;9.118;2023-03-17T09:36:57;9.98;;;2.67;;
1154;SDS011;566;48.414;9.118;2023-03-17T09:39:25;6.88;;;2.30;;
1154;SDS011;566;48.414;9.118;2023-03-17T09:45:04;5.68;;;2.80;;
1154;SDS011;566;48.414;9.118;2023-03-17T09:47:55;5.30;;;2.17;;
1154;SDS011;566;48.414;9.118;2023-03-17T09:50:45;6.40;;;2.60;;
1154;SDS011;566;48.414;9.118;2023-03-17T09:53:26;5.57;;;2.50;;
1154;SDS011;566;48.414;9.118;2023-03-17T09:55:58;5.60;;;2.55;;
1154;SDS011;566;48.414;9.118;2023-03-17T09:58:32;6.82;;;2.50;;
1154;SDS011;566;48.414;9.118;2023-03-17T10:01:00;7.03;;;2.97;;
1154;SDS011;566;48.414;9.118;2023-03-17T10:03:29;7.30;;;3.00;;
1154;SDS011;566;48.414;9.118;2023-03-17T10:09:01;8.07;;;2.65;;
1154;SDS011;566;48.414;9.118;2023-03-17T10:11:47;7.55;;;2.45;;
1154;SDS011;566;48.414;9.118;2023-03-17T10:17:17;7.78;;;2.55;;
1154;SDS011;566;48.414;9.118;2023-03-17T10:22:28;6.47;;;2.10;;
1154;SDS011;566;48.414;9.118;2023-03-17T10:25:14;5.25;;;2.20;;
1154;SDS011;566;48.414;9.118;2023-03-17T10:27:49;5.20;;;2.25;;
1154;SDS011;566;48.414;9.118;2023-03-17T10:30:26;4.75;;;2.40;;
1154;SDS011;566;48.414;9.118;2023-03-17T10:32:55;6.50;;;2.42;;
1154;SDS011;566;48.414;9.118;2023-03-17T10:35:23;5.80;;;1.90;;
1154;SDS011;566;48.414;9.118;2023-03-17T10:37:49;5.85;;;1.80;;
1154;SDS011;566;48.414;9.118;2023-03-17T10:40:23;4.95;;;2.08;;
1154;SDS011;566;48.414;9.118;2023-03-17T10:42:51;6.28;;;2.25;;
1154;SDS011;566;48.414;9.118;2023-03-17T10:45:33;7.20;;;2.72;;
1154;SDS011;566;48.414;9.118;2023-03-17T10:48:08;6.45;;;2.20;;
1154;SDS011;566;48.414;9.118;2023-03-17T10:50:35;7.13;;;2.50;;
1154;SDS011;566;48.414;9.118;2023-03-17T10:53:05;7.72;;;2.00;;
1154;SDS011;566;48.414;9.118;2023-03-17T10:55:41;6.13;;;1.98;;
1154;SDS011;566;48.414;9.118;2023-03-17T10:58:16;7.13;;;2.33;;
1154;SDS011;566;48.414;9.118;2023-03-17T11:03:34;4.80;;;1.60;;
1154;SDS011;566;48.414;9.118;2023-03-17T11:06:04;4.85;;;1.98;;
1154;SDS011;566;48.414;9.118;2023-03-17T11:08:34;7.18;;;1.80;;
1154;SDS011;566;48.414;9.118;2023-03-17T11:11:05;3.67;;;1.60;;
1154;SDS011;566;48.414;9.118;2023-03-17T11:13:44;7.07;;;2.20;;
1154;SDS011;566;48.414;9.118;2023-03-17T11:16:20;6.85;;;2.45;;
1154;SDS011;566;48.414;9.118;2023-03-17T11:18:49;5.45;;;2.20;;
1154;SDS011;566;48.414;9.118;2023-03-17T11:40:24;3.95;;;1.77;;
1154;SDS011;566;48.414;9.118;2023-03-17T11:48:43;5.97;;;2.00;;
1154;SDS011;566;48.414;9.118;2023-03-17T11:51:41;16.95;;;14.70;;
1154;SDS011;566;48.414;9.118;2023-03-17T11:57:03;3.92;;;1.83;;
1154;SDS011;566;48.414;9.118;2023-03-17T11:59:35;5.00;;;2.20;;
1154;SDS011;566;48.414;9.118;2023-03-17T12:05:08;5.35;;;1.55;;
1154;SDS011;566;48.414;9.118;2023-03-17T12:12:38;3.85;;;1.48;;
1154;SDS011;566;48.414;9.118;2023-03-17T12:15:16;5.93;;;1.90;;
1154;SDS011;566;48.414;9.118;2023-03-17T12:17:58;5.15;;;1.70;;
1154;SDS011;566;48.414;9.118;2023-03-17T12:28:32;5.68;;;2.28;;
1154;SDS011;566;48.414;9.118;2023-03-17T12:31:06;3.92;;;1.60;;
1154;SDS011;566;48.414;9.118;2023-03-17T12:33:39;5.07;;;1.90;;
1154;SDS011;566;48.414;9.118;2023-03-17T12:36:12;5.70;;;1.80;;
1154;SDS011;566;48.414;9.118;2023-03-17T12:38:45;4.68;;;1.80;;
1154;SDS011;566;48.414;9.118;2023-03-17T12:44:12;5.07;;;1.80;;
1154;SDS011;566;48.414;9.118;2023-03-17T12:46:53;4.68;;;1.80;;
1154;SDS011;566;48.414;9.118;2023-03-17T12:49:46;5.55;;;1.60;;
1154;SDS011;566;48.414;9.118;2023-03-17T12:55:22;4.38;;;1.80;;
1154;SDS011;566;48.414;9.118;2023-03-17T12:57:58;3.47;;;1.70;;
1154;SDS011;566;48.414;9.118;2023-03-17T13:00:28;6.38;;;1.70;;
1154;SDS011;566;48.414;9.118;2023-03-17T13:05:57;4.80;;;1.60;;
1154;SDS011;566;48.414;9.118;2023-03-17T13:08:30;5.28;;;2.10;;
1154;SDS011;566;48.414;9.118;2023-03-17T13:16:51;6.95;;;1.80;;
1154;SDS011;566;48.414;9.118;2023-03-17T13:19:22;4.57;;;1.70;;
1154;SDS011;566;48.414;9.118;2023-03-17T13:21:54;4.03;;;1.70;;
1154;SDS011;566;48.414;9.118;2023-03-17T13:24:22;6.15;;;2.20;;
1154;SDS011;566;48.414;9.118;2023-03-17T13:27:13;4.93;;;2.40;;
1154;SDS011;566;48.414;9.118;2023-03-17T13:30:53;4.68;;;2.20;;
1154;SDS011;566;48.414;9.118;2023-03-17T13:33:33;4.85;;;1.98;;
1154;SDS011;566;48.414;9.118;2023-03-17T13:46:24;4.35;;;1.45;;
1154;SDS011;566;48.414;9.118;2023-03-17T13:48:58;4.10;;;1.77;;
1154;SDS011;566;48.414;9.118;2023-03-17T13:51:38;5.85;;;1.95;;
1154;SDS011;566;48.414;9.118;2023-03-17T13:59:59;3.42;;;0.90;;
1154;SDS011;566;48.414;9.118;2023-03-17T14:02:40;3.75;;;1.00;;
1154;SDS011;566;48.414;9.118;2023-03-17T14:05:11;5.97;;;1.10;;
1154;SDS011;566;48.414;9.118;2023-03-17T14:07:50;2.58;;;1.10;;
1154;SDS011;566;48.414;9.118;2023-03-17T14:10:23;2.95;;;1.05;;
1154;SDS011;566;48.414;9.118;2023-03-17T14:12:55;2.08;;;1.00;;
1154;SDS011;566;48.414;9.118;2023-03-17T14:18:32;3.58;;;1.00;;
1154;SDS011;566;48.414;9.118;2023-03-17T14:21:01;3.30;;;1.05;;
1154;SDS011;566;48.414;9.118;2023-03-17T14:23:30;4.18;;;1.15;;
1154;SDS011;566;48.414;9.118;2023-03-17T14:25:56;5.60;;;1.30;;
1154;SDS011;566;48.414;9.118;2023-03-17T14:28:27;4.65;;;1.20;;
1154;SDS011;566;48.414;9.118;2023-03-17T14:30:59;5.20;;;1.10;;
1154;SDS011;566;48.414;9.118;2023-03-17T14:33:28;3.42;;;1.05;;
1154;SDS011;566;48.414;9.118;2023-03-17T14:35:57;3.15;;;1.30;;
1154;SDS011;566;48.414;9.118;2023-03-17T14:38:25;4.00;;;1.17;;
1154;SDS011;566;48.414;9.118;2023-03-17T14:41:03;3.88;;;1.30;;
1154;SDS011;566;48.414;9.118;2023-03-17T14:43:29;2.67;;;1.10;;
1154;SDS011;566;48.414;9.118;2023-03-17T14:46:06;2.90;;;1.10;;
1154;SDS011;566;48.414;9.118;2023-03-17T14:48:39;4.05;;;1.30;;
1154;SDS011;566;48.414;9.118;2023-03-17T14:51:08;2.40;;;1.08;;
1154;SDS011;566;48.414;9.118;2023-03-17T14:54:04;2.90;;;1.10;;
1154;SDS011;566;48.414;9.118;2023-03-17T14:56:37;4.20;;;1.25;;
1154;SDS011;566;48.414;9.118;2023-03-17T14:59:07;2.90;;;1.10;;
1154;SDS011;566;48.414;9.118;2023-03-17T15:01:57;4.38;;;1.10;;
1154;SDS011;566;48.414;9.118;2023-03-17T15:04:30;2.92;;;1.10;;
1154;SDS011;566;48.414;9.118;2023-03-17T15:07:02;3.85;;;1.20;;
1154;SDS011;566;48.414;9.118;2023-03-17T15:09:37;3.45;;;1.10;;
1154;SDS011;566;48.414;9.118;2023-03-17T15:14:37;4.95;;;1.52;;
1154;SDS011;566;48.414;9.118;2023-03-17T15:17:05;3.08;;;1.17;;
1154;SDS011;566;48.414;9.118;2023-03-17T15:19:41;2.85;;;1.13;;
1154;SDS011;566;48.414;9.118;2023-03-17T15:27:44;2.67;;;1.30;;
1154;SDS011;566;48.414;9.118;2023-03-17T15:30:11;2.95;;;1.20;;
1154;SDS011;566;48.414;9.118;2023-03-17T15:32:39;3.20;;;1.10;;
1154;SDS011;566;48.414;9.118;2023-03-17T15:35:05;3.67;;;1.25;;
1154;SDS011;566;48.414;9.118;2023-03-17T15:37:33;3.75;;;1.30;;
1154;SDS011;566;48.414;9.118;2023-03-17T15:39:59;3.28;;;1.10;;
1154;SDS011;566;48.414;9.118;2023-03-17T15:42:28;3.20;;;1.40;;
1154;SDS011;566;48.414;9.118;2023-03-17T15:44:55;4.55;;;1.88;;
1154;SDS011;566;48.414;9.118;2023-03-17T15:47:24;3.85;;;1.40;;
1154;SDS011;566;48.414;9.118;2023-03-17T15:49:52;4.85;;;1.38;;
1154;SDS011;566;48.414;9.118;2023-03-17T15:52:24;3.28;;;1.10;;
1154;SDS011;566;48.414;9.118;2023-03-17T15:54:52;3.25;;;1.20;;
1154;SDS011;566;48.414;9.118;2023-03-17T15:57:19;4.82;;;1.30;;
1154;SDS011;566;48.414;9.118;2023-03-17T15:59:45;3.65;;;1.30;;
1154;SDS011;566;48.414;9.118;2023-03-17T16:04:57;4.88;;;1.20;;
1154;SDS011;566;48.414;9.118;2023-03-17T16:07:26;2.80;;;1.20;;
1154;SDS011;566;48.414;9.118;2023-03-17T16:09:52;7.57;;;1.35;;
1154;SDS011;566;48.414;9.118;2023-03-17T16:12:18;3.33;;;1.33;;
1154;SDS011;566;48.414;9.118;2023-03-17T16:14:45;3.60;;;1.40;;
1154;SDS011;566;48.414;9.118;2023-03-17T16:17:32;4.15;;;1.60;;
1154;SDS011;566;48.414;9.118;2023-03-17T16:19:58;3.70;;;1.30;;
1154;SDS011;566;48.414;9.118;2023-03-17T16:22:33;3.13;;;1.27;;
1154;SDS011;566;48.414;9.118;2023-03-17T16:25:06;4.60;;;1.80;;
1154;SDS011;566;48.414;9.118;2023-03-17T16:27:43;4.25;;;1.70;;
1154;SDS011;566;48.414;9.118;2023-03-17T16:30:14;3.58;;;1.42;;
1154;SDS011;566;48.414;9.118;2023-03-17T16:32:43;5.18;;;1.58;;
1154;SDS011;566;48.414;9.118;2023-03-17T16:35:23;3.55;;;1.70;;
1154;SDS011;566;48.414;9.118;2023-03-17T16:37:49;4.80;;;1.60;;
1154;SDS011;566;48.414;9.118;2023-03-17T16:42:43;5.97;;;2.08;;
1154;SDS011;566;48.414;9.118;2023-03-17T16:45:13;6.05;;;1.95;;
1154;SDS011;566;48.414;9.118;2023-03-17T16:47:58;6.32;;;2.55;;
1154;SDS011;566;48.414;9.118;2023-03-17T16:50:27;6.47;;;2.03;;
1154;SDS011;566;48.414;9.118;2023-03-17T16:52:55;5.05;;;2.17;;
1154;SDS011;566;48.414;9.118;2023-03-17T16:55:22;7.45;;;2.13;;
1154;SDS011;566;48.414;9.118;2023-03-17T16:57:49;3.58;;;1.90;;
1154;SDS011;566;48.414;9.118;2023-03-17T17:00:24;6.70;;;2.53;;
1154;SDS011;566;48.414;9.118;2023-03-17T17:02:53;7.85;;;4.05;;
1154;SDS011;566;48.414;9.118;2023-03-17T17:05:22;7.95;;;4.10;;
1154;SDS011;566;48.414;9.118;2023-03-17T17:07:52;41.65;;;23.45;;
1154;SDS011;566;48.414;9.118;2023-03-17T17:10:20;10.68;;;6.45;;
1154;SDS011;566;48.414;9.118;2023-03-17T17:12:47;21.23;;;12.02;;
1154;SDS011;566;48.414;9.118;2023-03-17T17:15:14;55.83;;;36.38;;
1154;SDS011;566;48.414;9.118;2023-03-17T17:17:42;28.60;;;16.52;;
1154;SDS011;566;48.414;9.118;2023-03-17T17:20:15;14.32;;;7.95;;
1154;SDS011;566;48.414;9.118;2023-03-17T17:22:43;9.68;;;5.50;;
1154;SDS011;566;48.414;9.118;2023-03-17T17:25:09;8.88;;;4.25;;
1154;SDS011;566;48.414;9.118;2023-03-17T17:27:36;8.07;;;4.35;;
1154;SDS011;566;48.414;9.118;2023-03-17T17:30:03;8.43;;;4.20;;
1154;SDS011;566;48.414;9.118;2023-03-17T17:32:33;8.85;;;5.47;;